Terminal Aerodrome Forecast
Issued by NWS

Home | Current Version | Previous Version | Text Only | Print | Product List | Glossary On
Versions: 1 2 3 4 5 6 7 8 9 10 11 12 13
000
FTUS45 KRIW 310500
TAFLND
TAF
KLND 310537Z 3106/0106 34010KT P6SM VCTS SCT070CB BKN110
     FM310700 28009KT P6SM VCSH SCT080 BKN120
     FM311700 28014G24KT P6SM SCT090
     FM312200 02011KT P6SM FEW050 SCT080
     FM010200 VRB06KT P6SM SCT080=

USA.gov is the U.S. government's official web portal to all federal, state and local government web resources and services.